createdAt,value
2017-09-22T00:00:07.286Z,8.00
2017-09-22T00:02:35.647Z,8.00
2017-09-22T00:05:03.968Z,7.90
2017-09-22T00:07:32.385Z,7.90
2017-09-22T00:10:00.723Z,7.90
2017-09-22T00:12:29.138Z,7.90
2017-09-22T00:14:57.475Z,7.80
2017-09-22T00:17:25.795Z,7.80
2017-09-22T00:19:54.138Z,7.80
2017-09-22T00:22:22.453Z,7.80
2017-09-22T00:24:50.807Z,7.80
2017-09-22T00:27:19.128Z,7.70
2017-09-22T00:29:47.441Z,7.70
2017-09-22T00:32:15.779Z,7.70
2017-09-22T00:34:44.084Z,7.70
2017-09-22T00:37:13.459Z,7.70
2017-09-22T00:39:41.779Z,7.60
2017-09-22T00:42:10.124Z,7.60
2017-09-22T00:44:38.471Z,7.60
2017-09-22T00:47:06.804Z,7.60
2017-09-22T00:49:35.149Z,7.50
2017-09-22T00:52:03.459Z,7.50
2017-09-22T00:54:31.792Z,7.50
2017-09-22T00:57:00.109Z,7.40
2017-09-22T00:59:28.444Z,7.40
2017-09-22T01:01:56.765Z,7.40
2017-09-22T01:04:25.123Z,7.40
2017-09-22T01:06:53.466Z,7.30
2017-09-22T01:09:21.777Z,7.30
2017-09-22T01:11:49.346Z,7.30
2017-09-22T01:14:17.655Z,7.30
2017-09-22T01:16:45.991Z,7.30
2017-09-22T01:19:14.304Z,7.30
2017-09-22T01:21:42.738Z,7.30
2017-09-22T01:24:11.047Z,7.30
2017-09-22T01:26:39.364Z,7.30
2017-09-22T01:29:07.698Z,7.20
2017-09-22T01:31:36.013Z,7.20
2017-09-22T01:34:04.352Z,7.20
2017-09-22T01:36:32.772Z,7.20
2017-09-22T01:39:01.079Z,7.20
2017-09-22T01:41:29.411Z,7.20
2017-09-22T01:43:57.732Z,7.20
2017-09-22T01:46:26.067Z,7.10
2017-09-22T01:48:54.455Z,7.10
2017-09-22T01:51:22.806Z,7.10
2017-09-22T01:53:50.347Z,7.00
2017-09-22T01:56:18.667Z,7.00
2017-09-22T01:58:47.067Z,7.00
2017-09-22T02:01:15.432Z,7.00
2017-09-22T02:03:43.766Z,7.00
2017-09-22T02:06:12.078Z,7.00
2017-09-22T02:08:40.407Z,7.00
2017-09-22T02:11:08.740Z,7.00
2017-09-22T02:13:37.087Z,7.00
2017-09-22T02:16:05.404Z,7.00
2017-09-22T02:18:33.715Z,7.00
2017-09-22T02:21:02.059Z,6.90
2017-09-22T02:23:30.380Z,6.90
2017-09-22T02:25:58.713Z,6.90
2017-09-22T02:28:27.023Z,6.90
2017-09-22T02:30:55.370Z,6.80
2017-09-22T02:33:23.688Z,6.80
2017-09-22T02:35:52.057Z,6.80
2017-09-22T02:38:20.370Z,6.80
2017-09-22T02:40:47.923Z,6.80
2017-09-22T02:43:16.260Z,6.80
2017-09-22T02:45:44.612Z,6.80
2017-09-22T02:48:12.947Z,6.80
2017-09-22T02:50:41.267Z,6.80
2017-09-22T02:53:09.609Z,6.80
2017-09-22T02:55:37.932Z,6.70
2017-09-22T02:58:06.291Z,6.70
2017-09-22T03:00:34.618Z,6.70
2017-09-22T03:03:02.931Z,6.70
2017-09-22T03:05:31.259Z,6.70
2017-09-22T03:07:59.578Z,6.70
2017-09-22T03:10:27.906Z,6.60
2017-09-22T03:12:56.215Z,6.60
2017-09-22T03:15:24.543Z,6.60
2017-09-22T03:17:52.860Z,6.60
2017-09-22T03:20:22.238Z,6.60
2017-09-22T03:22:50.546Z,6.50
2017-09-22T03:25:18.855Z,6.50
2017-09-22T03:27:47.187Z,6.50
2017-09-22T03:30:15.496Z,6.40
2017-09-22T03:32:43.847Z,6.40
2017-09-22T03:35:12.159Z,6.40
2017-09-22T03:37:40.494Z,6.40
2017-09-22T03:40:08.812Z,6.40
2017-09-22T03:42:37.248Z,6.40
2017-09-22T03:45:05.563Z,6.40
2017-09-22T03:47:34.891Z,6.30
2017-09-22T03:50:03.232Z,6.30
2017-09-22T03:52:31.553Z,6.30
2017-09-22T03:54:59.892Z,6.30
2017-09-22T03:57:29.219Z,6.30
2017-09-22T03:59:57.552Z,6.30
2017-09-22T04:02:25.873Z,6.30
2017-09-22T04:04:54.224Z,6.20
2017-09-22T04:07:22.594Z,6.20
2017-09-22T04:09:50.912Z,6.20
2017-09-22T04:12:19.246Z,6.20
2017-09-22T04:14:47.556Z,6.20
2017-09-22T04:17:15.954Z,6.20
2017-09-22T04:19:44.263Z,6.20
2017-09-22T04:22:12.608Z,6.20
2017-09-22T04:24:40.924Z,6.20
2017-09-22T04:27:09.267Z,6.20
2017-09-22T04:29:37.603Z,6.20
2017-09-22T04:32:05.913Z,6.20
2017-09-22T04:34:34.238Z,6.20
2017-09-22T04:37:02.557Z,6.20
2017-09-22T04:39:30.896Z,6.20
2017-09-22T04:41:59.224Z,6.20
2017-09-22T04:44:27.559Z,6.30
2017-09-22T04:46:55.959Z,6.20
2017-09-22T04:49:24.341Z,6.30
2017-09-22T04:51:51.902Z,6.30
2017-09-22T04:54:20.218Z,6.30
2017-09-22T04:56:48.547Z,6.30
2017-09-22T04:59:16.863Z,6.30
2017-09-22T05:01:45.202Z,6.20
2017-09-22T05:04:13.511Z,6.20
2017-09-22T05:06:41.879Z,6.20
2017-09-22T05:09:10.188Z,6.20
2017-09-22T05:11:38.576Z,6.20
2017-09-22T05:14:06.887Z,6.20
2017-09-22T05:16:35.271Z,6.20
2017-09-22T05:19:03.603Z,6.20
2017-09-22T05:21:31.928Z,6.20
2017-09-22T05:24:00.255Z,6.20
2017-09-22T05:26:28.587Z,6.20
2017-09-22T05:28:56.919Z,6.20
2017-09-22T05:31:25.230Z,6.20
2017-09-22T05:33:53.568Z,6.30
2017-09-22T05:36:21.116Z,6.20
2017-09-22T05:38:49.651Z,6.30
2017-09-22T05:41:18.032Z,6.30
2017-09-22T05:43:46.342Z,6.30
2017-09-22T05:46:14.710Z,6.40
2017-09-22T05:48:43.042Z,6.40
2017-09-22T05:51:11.608Z,6.50
2017-09-22T05:53:39.983Z,6.50
2017-09-22T05:56:08.328Z,6.50
2017-09-22T05:58:36.640Z,6.50
2017-09-22T06:01:06.063Z,6.60
2017-09-22T06:03:34.399Z,6.70
2017-09-22T06:06:02.721Z,6.70
2017-09-22T06:08:31.070Z,6.80
2017-09-22T06:10:59.388Z,6.80
2017-09-22T06:13:27.801Z,6.90
2017-09-22T06:15:56.124Z,6.90
2017-09-22T06:18:24.564Z,7.00
2017-09-22T06:20:52.890Z,7.10
2017-09-22T06:23:21.316Z,7.20
2017-09-22T06:25:49.635Z,7.30
2017-09-22T06:28:18.094Z,7.40
2017-09-22T06:30:46.418Z,7.50
2017-09-22T06:33:14.745Z,7.60
2017-09-22T06:35:43.955Z,7.70
2017-09-22T06:38:12.280Z,7.70
2017-09-22T06:40:40.623Z,7.80
2017-09-22T06:43:08.935Z,7.90
2017-09-22T06:45:37.279Z,8.00
2017-09-22T06:48:05.590Z,8.10
2017-09-22T06:50:33.931Z,8.10
2017-09-22T06:53:02.259Z,8.20
2017-09-22T06:55:30.603Z,8.30
2017-09-22T06:57:58.940Z,8.40
2017-09-22T07:00:27.279Z,8.60
2017-09-22T07:02:55.642Z,8.70
2017-09-22T07:05:24.000Z,8.90
2017-09-22T07:07:52.311Z,9.10
2017-09-22T07:10:20.627Z,9.20
2017-09-22T07:12:48.978Z,9.30
2017-09-22T07:15:17.296Z,9.40
2017-09-22T07:17:45.648Z,9.60
2017-09-22T07:20:14.005Z,9.70
2017-09-22T07:22:42.339Z,9.90
2017-09-22T07:25:10.660Z,10.00
2017-09-22T07:27:39.007Z,10.10
2017-09-22T07:30:07.323Z,10.30
2017-09-22T07:32:35.684Z,10.50
2017-09-22T07:35:03.991Z,10.70
2017-09-22T07:37:32.302Z,11.00
2017-09-22T07:40:00.643Z,11.30
2017-09-22T07:42:28.965Z,11.60
2017-09-22T07:44:57.302Z,11.80
2017-09-22T07:47:25.620Z,11.90
2017-09-22T07:49:53.953Z,12.00
2017-09-22T07:52:22.267Z,12.10
2017-09-22T07:54:49.864Z,12.10
2017-09-22T07:57:18.197Z,12.40
2017-09-22T07:59:46.519Z,12.50
2017-09-22T08:02:14.864Z,12.70
2017-09-22T08:04:43.176Z,12.80
2017-09-22T08:07:11.519Z,12.90
2017-09-22T08:09:39.911Z,13.10
2017-09-22T08:12:08.245Z,13.30
2017-09-22T08:14:36.568Z,13.60
2017-09-22T08:17:04.919Z,13.80
2017-09-22T08:19:33.232Z,13.90
2017-09-22T08:22:01.548Z,14.00
2017-09-22T08:24:29.902Z,14.20
2017-09-22T08:26:58.221Z,14.30
2017-09-22T08:29:26.559Z,14.40
2017-09-22T08:31:54.883Z,14.60
2017-09-22T08:34:23.224Z,14.90
2017-09-22T08:36:50.785Z,14.80
2017-09-22T08:39:19.119Z,15.20
2017-09-22T08:41:47.548Z,15.30
2017-09-22T08:44:15.931Z,15.50
2017-09-22T08:46:44.272Z,15.80
2017-09-22T08:49:12.591Z,16.10
2017-09-22T08:51:40.951Z,16.30
2017-09-22T08:54:09.271Z,16.60
2017-09-22T08:56:37.616Z,16.80
2017-09-22T08:59:05.935Z,17.00
2017-09-22T09:01:34.267Z,17.20
2017-09-22T09:04:02.576Z,17.30
2017-09-22T09:06:30.931Z,17.40
2017-09-22T09:08:59.245Z,17.50
2017-09-22T09:11:27.561Z,17.60
2017-09-22T09:13:55.903Z,17.70
2017-09-22T09:16:24.216Z,17.70
2017-09-22T09:18:52.550Z,17.70
2017-09-22T09:21:20.860Z,17.90
2017-09-22T09:23:49.194Z,18.10
2017-09-22T09:26:17.503Z,18.30
2017-09-22T09:28:45.847Z,18.40
2017-09-22T09:31:14.159Z,18.60
2017-09-22T09:33:42.471Z,18.70
2017-09-22T09:36:10.799Z,18.90
2017-09-22T09:38:39.111Z,19.10
2017-09-22T09:41:06.671Z,19.10
2017-09-22T09:43:34.979Z,19.40
2017-09-22T09:46:03.308Z,19.60
2017-09-22T09:48:31.612Z,19.70
2017-09-22T09:50:59.943Z,19.90
2017-09-22T09:53:28.257Z,20.10
2017-09-22T09:55:55.908Z,20.10
2017-09-22T09:58:24.220Z,20.40
2017-09-22T10:00:52.546Z,20.60
2017-09-22T10:03:20.874Z,20.90
2017-09-22T10:05:49.191Z,20.90
2017-09-22T10:08:17.519Z,20.80
2017-09-22T10:10:45.842Z,20.80
2017-09-22T10:13:14.175Z,20.90
2017-09-22T10:15:42.503Z,21.00
2017-09-22T10:18:10.844Z,21.10
2017-09-22T10:20:39.161Z,21.30
2017-09-22T10:23:07.470Z,21.40
2017-09-22T10:25:35.804Z,21.50
2017-09-22T10:28:04.123Z,21.40
2017-09-22T10:30:32.451Z,21.40
2017-09-22T10:33:00.767Z,21.20
2017-09-22T10:35:29.095Z,20.90
2017-09-22T10:37:57.400Z,20.60
2017-09-22T10:40:25.744Z,20.30
2017-09-22T10:42:54.056Z,20.30
2017-09-22T10:45:22.363Z,20.30
2017-09-22T10:47:50.702Z,20.20
2017-09-22T10:50:19.012Z,20.10
2017-09-22T10:52:47.339Z,20.00
2017-09-22T10:55:15.659Z,20.10
2017-09-22T10:57:43.995Z,20.20
2017-09-22T11:00:12.307Z,20.40
2017-09-22T11:02:40.660Z,20.60
2017-09-22T11:05:08.972Z,20.60
2017-09-22T11:07:37.284Z,20.60
2017-09-22T11:10:04.855Z,20.60
2017-09-22T11:12:33.171Z,20.50
2017-09-22T11:15:01.503Z,20.50
2017-09-22T11:17:29.819Z,20.40
2017-09-22T11:19:58.151Z,20.30
2017-09-22T11:22:26.468Z,20.30
2017-09-22T11:24:54.797Z,20.40
2017-09-22T11:27:23.122Z,20.50
2017-09-22T11:29:51.439Z,20.80
2017-09-22T11:32:19.776Z,21.00
2017-09-22T11:34:48.083Z,21.10
2017-09-22T11:37:16.421Z,21.00
2017-09-22T11:39:44.732Z,20.90
2017-09-22T11:42:13.077Z,20.90
2017-09-22T11:44:41.391Z,20.80
2017-09-22T11:47:09.742Z,20.80
2017-09-22T11:49:38.051Z,20.80
2017-09-22T11:52:06.372Z,20.90
2017-09-22T11:54:34.704Z,20.90
2017-09-22T11:57:03.022Z,20.90
2017-09-22T11:59:31.352Z,21.00
2017-09-22T12:01:59.674Z,21.10
2017-09-22T12:04:28.011Z,21.10
2017-09-22T12:06:56.340Z,21.10
2017-09-22T12:09:24.679Z,21.20
2017-09-22T12:11:53.011Z,21.30
2017-09-22T12:14:21.359Z,21.30
2017-09-22T12:16:49.675Z,21.40
2017-09-22T12:19:17.983Z,21.30
2017-09-22T12:21:46.312Z,21.40
2017-09-22T12:24:14.618Z,21.40
2017-09-22T12:26:42.947Z,21.50
2017-09-22T12:29:11.254Z,21.50
2017-09-22T12:31:39.585Z,21.50
2017-09-22T12:34:07.132Z,21.50
2017-09-22T12:36:35.459Z,21.60
2017-09-22T12:39:03.773Z,21.80
2017-09-22T12:41:32.125Z,22.00
2017-09-22T12:44:00.426Z,22.10
2017-09-22T12:46:28.739Z,22.10
2017-09-22T12:48:57.074Z,22.20
2017-09-22T12:51:25.385Z,22.40
2017-09-22T12:53:52.955Z,22.40
2017-09-22T12:56:21.271Z,22.60
2017-09-22T12:58:49.596Z,22.50
2017-09-22T13:01:17.936Z,22.40
2017-09-22T13:03:46.278Z,22.30
2017-09-22T13:06:14.595Z,22.40
2017-09-22T13:08:42.945Z,22.40
2017-09-22T13:11:11.264Z,22.40
2017-09-22T13:13:38.808Z,22.40
2017-09-22T13:16:07.139Z,22.80
2017-09-22T13:18:35.449Z,22.80
2017-09-22T13:21:03.784Z,22.60
2017-09-22T13:23:32.120Z,22.40
2017-09-22T13:26:00.457Z,22.40
2017-09-22T13:28:28.767Z,22.60
2017-09-22T13:30:57.098Z,22.80
2017-09-22T13:33:25.411Z,23.20
2017-09-22T13:35:53.770Z,23.30
2017-09-22T13:38:22.084Z,23.10
2017-09-22T13:40:50.394Z,23.10
2017-09-22T13:43:18.732Z,23.00
2017-09-22T13:45:47.053Z,22.90
2017-09-22T13:48:15.384Z,22.90
2017-09-22T13:50:43.698Z,22.80
2017-09-22T13:53:12.043Z,22.50
2017-09-22T13:55:40.426Z,22.50
2017-09-22T13:58:08.752Z,22.80
2017-09-22T14:00:37.064Z,23.00
2017-09-22T14:03:05.415Z,23.10
2017-09-22T14:05:33.730Z,23.20
2017-09-22T14:08:02.038Z,23.50
2017-09-22T14:10:30.363Z,23.70
2017-09-22T14:12:58.680Z,23.70
2017-09-22T14:15:27.024Z,23.90
2017-09-22T14:17:55.340Z,24.30
2017-09-22T14:20:23.670Z,24.70
2017-09-22T14:22:51.988Z,24.70
2017-09-22T14:25:20.325Z,24.50
2017-09-22T14:27:48.636Z,24.40
2017-09-22T14:30:16.995Z,24.00
2017-09-22T14:32:45.324Z,23.70
2017-09-22T14:35:13.643Z,23.60
2017-09-22T14:37:41.974Z,23.30
2017-09-22T14:40:10.286Z,23.00
2017-09-22T14:42:38.613Z,22.80
2017-09-22T14:45:06.922Z,22.40
2017-09-22T14:47:35.271Z,22.20
2017-09-22T14:50:03.591Z,22.10
2017-09-22T14:52:31.900Z,22.10
2017-09-22T14:55:00.231Z,21.90
2017-09-22T14:57:28.547Z,21.70
2017-09-22T14:59:56.881Z,21.60
2017-09-22T15:02:25.195Z,21.50
2017-09-22T15:04:53.527Z,21.50
2017-09-22T15:07:21.843Z,21.50
2017-09-22T15:09:49.423Z,21.50
2017-09-22T15:12:16.963Z,21.80
2017-09-22T15:14:45.324Z,21.80
2017-09-22T15:17:13.632Z,21.50
2017-09-22T15:19:41.948Z,21.20
2017-09-22T15:22:10.281Z,20.90
2017-09-22T15:24:38.597Z,20.60
2017-09-22T15:27:06.936Z,20.40
2017-09-22T15:29:35.247Z,20.20
2017-09-22T15:32:03.579Z,20.10
2017-09-22T15:34:31.887Z,19.90
2017-09-22T15:37:00.212Z,19.80
2017-09-22T15:39:28.518Z,19.80
2017-09-22T15:41:56.875Z,19.70
2017-09-22T15:44:25.194Z,19.60
2017-09-22T15:46:53.516Z,19.50
2017-09-22T15:49:21.846Z,19.50
2017-09-22T15:51:50.155Z,19.50
2017-09-22T15:54:18.495Z,19.50
2017-09-22T15:56:46.813Z,19.60
2017-09-22T15:59:15.156Z,19.60
2017-09-22T16:01:43.473Z,19.60
2017-09-22T16:04:11.806Z,19.60
2017-09-22T16:06:39.355Z,19.60
2017-09-22T16:09:07.706Z,19.60
2017-09-22T16:11:36.016Z,19.60
2017-09-22T16:14:04.328Z,19.60
2017-09-22T16:16:32.663Z,19.60
2017-09-22T16:19:00.975Z,19.50
2017-09-22T16:21:29.309Z,19.40
2017-09-22T16:23:57.644Z,19.30
2017-09-22T16:26:25.990Z,19.20
2017-09-22T16:28:54.304Z,19.10
2017-09-22T16:31:22.639Z,19.00
2017-09-22T16:33:50.951Z,18.90
2017-09-22T16:36:19.301Z,18.70
2017-09-22T16:38:47.614Z,18.70
2017-09-22T16:41:15.923Z,18.60
2017-09-22T16:43:44.258Z,18.50
2017-09-22T16:46:12.575Z,18.40
2017-09-22T16:48:40.908Z,18.30
2017-09-22T16:51:09.229Z,18.20
2017-09-22T16:53:37.562Z,18.10
2017-09-22T16:56:05.888Z,18.00
2017-09-22T16:58:34.231Z,18.00
2017-09-22T17:01:02.543Z,17.90
2017-09-22T17:03:30.908Z,17.90
2017-09-22T17:05:59.226Z,17.80
2017-09-22T17:08:27.547Z,17.70
2017-09-22T17:10:55.890Z,17.70
2017-09-22T17:13:24.213Z,17.60
2017-09-22T17:15:52.560Z,17.60
2017-09-22T17:18:20.892Z,17.60
2017-09-22T17:20:49.235Z,17.50
2017-09-22T17:23:17.552Z,17.40
2017-09-22T17:25:45.890Z,17.40
2017-09-22T17:28:14.203Z,17.30
2017-09-22T17:30:42.564Z,17.30
2017-09-22T17:33:10.887Z,17.20
2017-09-22T17:35:39.207Z,17.20
2017-09-22T17:38:07.549Z,17.10
2017-09-22T17:40:35.868Z,17.00
2017-09-22T17:43:04.207Z,17.00
2017-09-22T17:45:32.524Z,16.90
2017-09-22T17:48:00.856Z,16.90
2017-09-22T17:50:29.170Z,16.80
2017-09-22T17:52:57.512Z,16.80
2017-09-22T17:55:25.832Z,16.70
2017-09-22T17:57:54.185Z,16.70
2017-09-22T18:00:22.505Z,16.70
2017-09-22T18:02:50.823Z,16.60
2017-09-22T18:05:19.190Z,16.60
2017-09-22T18:07:47.507Z,16.50
2017-09-22T18:10:15.844Z,16.50
2017-09-22T18:12:44.161Z,16.50
2017-09-22T18:15:12.502Z,16.40
2017-09-22T18:17:40.816Z,16.40
2017-09-22T18:20:09.153Z,16.30
2017-09-22T18:22:37.472Z,16.30
2017-09-22T18:25:05.830Z,16.20
2017-09-22T18:27:34.147Z,16.20
2017-09-22T18:30:02.463Z,16.10
2017-09-22T18:32:30.800Z,16.10
2017-09-22T18:34:59.122Z,16.10
2017-09-22T18:37:27.465Z,16.10
2017-09-22T18:39:55.788Z,16.00
2017-09-22T18:42:24.152Z,16.00
2017-09-22T18:44:52.476Z,16.00
2017-09-22T18:47:20.818Z,15.90
2017-09-22T18:49:49.139Z,15.90
2017-09-22T18:52:17.504Z,15.90
2017-09-22T18:54:45.827Z,15.80
2017-09-22T18:57:14.154Z,15.80
2017-09-22T18:59:41.726Z,15.80
2017-09-22T19:02:10.167Z,15.70
2017-09-22T19:04:38.511Z,15.70
2017-09-22T19:07:06.841Z,15.60
2017-09-22T19:09:35.182Z,15.60
2017-09-22T19:12:03.657Z,15.60
2017-09-22T19:14:32.033Z,15.50
2017-09-22T19:17:00.379Z,15.50
2017-09-22T19:19:28.932Z,15.50
2017-09-22T19:21:57.250Z,15.40
2017-09-22T19:24:25.572Z,15.40
2017-09-22T19:26:53.941Z,15.30
2017-09-22T19:29:22.337Z,15.30
2017-09-22T19:31:49.953Z,15.30
2017-09-22T19:34:18.329Z,15.20
2017-09-22T19:36:46.684Z,15.20
2017-09-22T19:39:15.046Z,15.20
2017-09-22T19:41:43.434Z,15.10
2017-09-22T19:44:11.249Z,15.10
2017-09-22T19:46:38.884Z,15.10
2017-09-22T19:49:07.204Z,15.10
2017-09-22T19:51:35.543Z,15.00
2017-09-22T19:54:03.923Z,15.00
2017-09-22T19:56:32.343Z,15.00
2017-09-22T19:59:00.707Z,14.90
2017-09-22T20:01:29.040Z,15.00
2017-09-22T20:03:57.390Z,14.90
2017-09-22T20:06:25.791Z,14.90
2017-09-22T20:08:54.140Z,14.80
2017-09-22T20:11:22.493Z,14.80
2017-09-22T20:13:50.055Z,14.80
2017-09-22T20:16:18.392Z,14.70
2017-09-22T20:18:46.745Z,14.70
2017-09-22T20:21:15.116Z,14.70
2017-09-22T20:23:43.435Z,14.70
2017-09-22T20:26:11.831Z,14.70
2017-09-22T20:28:40.218Z,14.70
2017-09-22T20:31:08.622Z,14.70
2017-09-22T20:33:36.964Z,14.70
2017-09-22T20:36:05.376Z,14.60
2017-09-22T20:38:33.694Z,14.60
2017-09-22T20:41:02.028Z,14.60
2017-09-22T20:43:30.411Z,14.60
2017-09-22T20:45:58.760Z,14.60
2017-09-22T20:48:27.147Z,14.60
2017-09-22T20:50:55.470Z,14.50
2017-09-22T20:53:23.808Z,14.50
2017-09-22T20:55:52.129Z,14.40
2017-09-22T20:58:20.475Z,14.40
2017-09-22T21:00:48.818Z,14.30
2017-09-22T21:03:17.208Z,14.30
2017-09-22T21:05:44.757Z,14.20
2017-09-22T21:08:13.089Z,14.10
2017-09-22T21:10:41.467Z,14.00
2017-09-22T21:13:09.847Z,14.00
2017-09-22T21:15:38.188Z,13.90
2017-09-22T21:18:06.513Z,13.80
2017-09-22T21:20:34.857Z,13.70
2017-09-22T21:23:03.175Z,13.60
2017-09-22T21:25:31.516Z,13.60
2017-09-22T21:27:59.843Z,13.50
2017-09-22T21:30:27.446Z,13.50
2017-09-22T21:32:55.768Z,13.40
2017-09-22T21:35:24.095Z,13.30
2017-09-22T21:37:52.440Z,13.20
2017-09-22T21:40:20.760Z,13.10
2017-09-22T21:42:48.340Z,13.10
2017-09-22T21:45:16.663Z,13.00
2017-09-22T21:47:45.007Z,12.90
2017-09-22T21:50:13.332Z,12.80
2017-09-22T21:52:40.905Z,12.80
2017-09-22T21:55:09.250Z,12.70
2017-09-22T21:57:37.607Z,12.70
2017-09-22T22:00:05.937Z,12.60
2017-09-22T22:02:40.140Z,12.60
2017-09-22T22:05:14.102Z,12.50
2017-09-22T22:07:42.472Z,12.50
2017-09-22T22:10:10.816Z,12.40
2017-09-22T22:12:39.154Z,12.40
2017-09-22T22:15:07.494Z,12.40
2017-09-22T22:17:35.815Z,12.40
2017-09-22T22:20:04.155Z,12.30
2017-09-22T22:22:32.479Z,12.30
2017-09-22T22:25:00.820Z,12.30
2017-09-22T22:27:29.130Z,12.20
2017-09-22T22:29:57.496Z,12.20
2017-09-22T22:32:25.821Z,12.10
2017-09-22T22:34:54.144Z,12.00
2017-09-22T22:37:28.380Z,12.00
2017-09-22T22:39:56.756Z,12.00
2017-09-22T22:42:25.100Z,11.90
2017-09-22T22:44:53.447Z,11.90
2017-09-22T22:47:21.792Z,11.90
2017-09-22T22:49:50.110Z,11.90
2017-09-22T22:52:18.448Z,11.90
2017-09-22T22:54:46.768Z,11.90
2017-09-22T22:57:15.132Z,11.90
2017-09-22T22:59:43.543Z,11.80
2017-09-22T23:02:11.859Z,11.80
2017-09-22T23:04:40.498Z,11.70
2017-09-22T23:07:08.820Z,11.70
2017-09-22T23:09:37.155Z,11.70
2017-09-22T23:12:05.481Z,11.70
2017-09-22T23:14:33.815Z,11.70
2017-09-22T23:17:02.133Z,11.60
2017-09-22T23:19:30.475Z,11.60
2017-09-22T23:21:58.803Z,11.60
2017-09-22T23:24:27.203Z,11.50
2017-09-22T23:26:55.529Z,11.50
2017-09-22T23:29:23.853Z,11.50
2017-09-22T23:31:52.337Z,11.50
2017-09-22T23:34:20.650Z,11.40
2017-09-22T23:36:48.994Z,11.40
2017-09-22T23:39:17.320Z,11.30
2017-09-22T23:41:45.659Z,11.30
2017-09-22T23:44:13.979Z,11.20
2017-09-22T23:46:42.322Z,11.20
2017-09-22T23:49:10.650Z,11.20
2017-09-22T23:51:38.211Z,11.10
2017-09-22T23:54:06.550Z,11.10
2017-09-22T23:56:34.869Z,11.10
2017-09-22T23:59:03.224Z,11.10
